sensor_id;sensor_type;location;lat;lon;timestamp;pressure;altitude;pressure_sealevel;temperature;humidity
5755;BME280;2902;42.130;24.732;2022-08-19T00:02:16;98966.91;;;28.68;46.28
5755;BME280;2902;42.130;24.732;2022-08-19T00:04:42;98966.91;;;28.68;45.97
5755;BME280;2902;42.130;24.732;2022-08-19T00:07:11;98960.19;;;28.57;47.14
5755;BME280;2902;42.130;24.732;2022-08-19T00:09:38;98962.66;;;28.41;47.39
5755;BME280;2902;42.130;24.732;2022-08-19T00:12:05;98960.38;;;28.26;47.47
5755;BME280;2902;42.130;24.732;2022-08-19T00:14:32;98966.19;;;28.08;47.85
5755;BME280;2902;42.130;24.732;2022-08-19T00:17:02;98971.84;;;27.86;48.66
5755;BME280;2902;42.130;24.732;2022-08-19T00:19:29;98972.91;;;27.76;48.61
5755;BME280;2902;42.130;24.732;2022-08-19T00:21:56;98962.31;;;27.75;48.88
5755;BME280;2902;42.130;24.732;2022-08-19T00:24:24;98968.13;;;27.82;49.76
5755;BME280;2902;42.130;24.732;2022-08-19T00:26:52;98967.81;;;27.92;49.65
5755;BME280;2902;42.130;24.732;2022-08-19T00:29:21;98963.00;;;27.97;49.52
5755;BME280;2902;42.130;24.732;2022-08-19T00:31:49;98963.16;;;28.01;49.49
5755;BME280;2902;42.130;24.732;2022-08-19T00:34:20;98958.16;;;28.03;48.77
5755;BME280;2902;42.130;24.732;2022-08-19T00:36:48;98960.09;;;28.02;49.43
5755;BME280;2902;42.130;24.732;2022-08-19T00:39:16;98952.72;;;28.03;49.38
5755;BME280;2902;42.130;24.732;2022-08-19T00:41:43;98948.38;;;28.02;49.47
5755;BME280;2902;42.130;24.732;2022-08-19T00:44:14;98955.44;;;28.03;48.74
5755;BME280;2902;42.130;24.732;2022-08-19T00:46:44;98901.16;;;27.76;48.47
5755;BME280;2902;42.130;24.732;2022-08-19T00:49:14;98940.69;;;27.95;48.77
5755;BME280;2902;42.130;24.732;2022-08-19T00:51:44;98943.09;;;27.97;48.90
5755;BME280;2902;42.130;24.732;2022-08-19T00:54:12;98939.22;;;27.98;49.69
5755;BME280;2902;42.130;24.732;2022-08-19T00:56:39;98936.81;;;28.05;49.78
5755;BME280;2902;42.130;24.732;2022-08-19T00:59:06;98933.41;;;28.08;49.67
5755;BME280;2902;42.130;24.732;2022-08-19T01:01:34;98932.47;;;28.12;49.76
5755;BME280;2902;42.130;24.732;2022-08-19T01:04:01;98923.31;;;28.17;49.80
5755;BME280;2902;42.130;24.732;2022-08-19T01:06:28;98924.22;;;28.21;49.03
5755;BME280;2902;42.130;24.732;2022-08-19T01:08:57;98918.78;;;28.21;49.22
5755;BME280;2902;42.130;24.732;2022-08-19T01:11:24;98921.03;;;28.19;49.51
5755;BME280;2902;42.130;24.732;2022-08-19T01:13:52;98917.22;;;27.86;49.82
5755;BME280;2902;42.130;24.732;2022-08-19T01:16:22;98923.31;;;27.83;50.29
5755;BME280;2902;42.130;24.732;2022-08-19T01:18:50;98920.59;;;27.83;49.59
5755;BME280;2902;42.130;24.732;2022-08-19T01:21:22;98916.88;;;27.79;49.47
5755;BME280;2902;42.130;24.732;2022-08-19T01:23:52;98922.81;;;27.81;50.01
5755;BME280;2902;42.130;24.732;2022-08-19T01:26:21;98916.41;;;27.77;50.31
5755;BME280;2902;42.130;24.732;2022-08-19T01:28:51;98925.22;;;27.74;50.03
5755;BME280;2902;42.130;24.732;2022-08-19T01:31:21;98929.56;;;27.75;51.10
5755;BME280;2902;42.130;24.732;2022-08-19T01:33:48;98931.03;;;27.81;51.24
5755;BME280;2902;42.130;24.732;2022-08-19T01:36:23;98928.63;;;27.88;51.47
5755;BME280;2902;42.130;24.732;2022-08-19T01:38:51;98947.28;;;27.94;51.06
5755;BME280;2902;42.130;24.732;2022-08-19T01:41:19;98952.56;;;27.91;50.34
5755;BME280;2902;42.130;24.732;2022-08-19T01:43:47;98950.78;;;27.95;51.04
5755;BME280;2902;42.130;24.732;2022-08-19T01:46:15;98959.94;;;27.99;50.52
5755;BME280;2902;42.130;24.732;2022-08-19T01:48:43;98952.38;;;27.96;50.88
5755;BME280;2902;42.130;24.732;2022-08-19T01:51:11;98958.97;;;27.95;49.96
5755;BME280;2902;42.130;24.732;2022-08-19T01:53:39;98968.59;;;27.84;50.38
5755;BME280;2902;42.130;24.732;2022-08-19T01:56:07;98972.03;;;27.25;51.09
5755;BME280;2902;42.130;24.732;2022-08-19T01:58:49;98976.59;;;27.07;52.23
5755;BME280;2902;42.130;24.732;2022-08-19T02:01:17;98979.78;;;26.92;52.50
5755;BME280;2902;42.130;24.732;2022-08-19T02:03:44;98982.34;;;26.97;52.69
5755;BME280;2902;42.130;24.732;2022-08-19T02:06:11;98983.50;;;27.05;52.82
5755;BME280;2902;42.130;24.732;2022-08-19T02:08:39;98975.97;;;27.10;52.78
5755;BME280;2902;42.130;24.732;2022-08-19T02:11:07;98985.50;;;27.21;52.61
5755;BME280;2902;42.130;24.732;2022-08-19T02:13:35;98974.38;;;27.18;52.82
5755;BME280;2902;42.130;24.732;2022-08-19T02:16:02;98989.38;;;27.29;52.72
5755;BME280;2902;42.130;24.732;2022-08-19T02:18:29;98988.84;;;27.18;52.74
5755;BME280;2902;42.130;24.732;2022-08-19T02:20:56;98992.88;;;27.21;53.43
5755;BME280;2902;42.130;24.732;2022-08-19T02:23:22;99005.28;;;27.27;53.11
5755;BME280;2902;42.130;24.732;2022-08-19T02:25:51;98992.59;;;27.31;52.83
5755;BME280;2902;42.130;24.732;2022-08-19T02:28:17;99001.41;;;27.36;52.35
5755;BME280;2902;42.130;24.732;2022-08-19T02:30:47;98994.41;;;27.44;52.79
5755;BME280;2902;42.130;24.732;2022-08-19T02:33:13;99000.66;;;27.53;52.83
5755;BME280;2902;42.130;24.732;2022-08-19T02:35:41;99002.28;;;27.54;52.60
5755;BME280;2902;42.130;24.732;2022-08-19T02:38:08;99003.88;;;27.55;52.58
5755;BME280;2902;42.130;24.732;2022-08-19T02:40:56;99004.72;;;27.64;52.14
5755;BME280;2902;42.130;24.732;2022-08-19T02:43:23;99007.38;;;27.38;52.67
5755;BME280;2902;42.130;24.732;2022-08-19T02:45:52;99014.13;;;27.41;52.98
5755;BME280;2902;42.130;24.732;2022-08-19T02:48:21;99013.03;;;26.81;53.58
5755;BME280;2902;42.130;24.732;2022-08-19T02:50:50;99015.38;;;26.96;54.05
5755;BME280;2902;42.130;24.732;2022-08-19T02:53:20;99010.69;;;26.88;53.55
5755;BME280;2902;42.130;24.732;2022-08-19T02:55:48;99014.00;;;26.76;54.86
5755;BME280;2902;42.130;24.732;2022-08-19T02:58:15;99010.06;;;26.91;54.29
5755;BME280;2902;42.130;24.732;2022-08-19T03:00:47;99015.22;;;27.01;54.58
5755;BME280;2902;42.130;24.732;2022-08-19T03:03:16;99022.03;;;27.12;53.67
5755;BME280;2902;42.130;24.732;2022-08-19T03:05:44;99019.28;;;27.12;53.67
5755;BME280;2902;42.130;24.732;2022-08-19T03:08:11;99024.78;;;27.20;53.94
5755;BME280;2902;42.130;24.732;2022-08-19T03:10:43;99020.16;;;27.21;53.47
5755;BME280;2902;42.130;24.732;2022-08-19T03:13:12;99030.44;;;27.24;53.60
5755;BME280;2902;42.130;24.732;2022-08-19T03:15:41;99027.41;;;27.25;53.50
5755;BME280;2902;42.130;24.732;2022-08-19T03:18:07;99028.19;;;27.26;53.69
5755;BME280;2902;42.130;24.732;2022-08-19T03:20:40;99026.44;;;27.30;53.76
5755;BME280;2902;42.130;24.732;2022-08-19T03:23:07;99025.81;;;27.33;53.36
5755;BME280;2902;42.130;24.732;2022-08-19T03:25:37;99037.34;;;27.30;53.14
5755;BME280;2902;42.130;24.732;2022-08-19T03:28:06;99028.84;;;27.23;53.30
5755;BME280;2902;42.130;24.732;2022-08-19T03:30:33;99033.28;;;27.19;53.75
5755;BME280;2902;42.130;24.732;2022-08-19T03:33:00;99039.75;;;27.23;53.72
5755;BME280;2902;42.130;24.732;2022-08-19T03:35:27;99045.53;;;27.21;53.45
5755;BME280;2902;42.130;24.732;2022-08-19T03:37:55;99041.97;;;27.21;53.82
5755;BME280;2902;42.130;24.732;2022-08-19T03:40:22;99038.38;;;27.12;54.04
5755;BME280;2902;42.130;24.732;2022-08-19T03:42:49;99044.38;;;26.92;54.83
5755;BME280;2902;42.130;24.732;2022-08-19T03:45:16;99043.97;;;26.76;55.08
5755;BME280;2902;42.130;24.732;2022-08-19T03:47:43;99046.16;;;26.66;55.65
5755;BME280;2902;42.130;24.732;2022-08-19T03:50:10;99046.59;;;26.59;55.77
5755;BME280;2902;42.130;24.732;2022-08-19T03:52:37;99050.69;;;26.57;57.04
5755;BME280;2902;42.130;24.732;2022-08-19T03:55:06;99056.78;;;26.76;56.23
5755;BME280;2902;42.130;24.732;2022-08-19T03:57:34;99055.00;;;27.02;55.18
5755;BME280;2902;42.130;24.732;2022-08-19T04:00:01;99059.69;;;27.32;54.69
5755;BME280;2902;42.130;24.732;2022-08-19T04:02:29;99055.44;;;27.65;54.38
5755;BME280;2902;42.130;24.732;2022-08-19T04:04:56;99054.88;;;28.02;52.90
5755;BME280;2902;42.130;24.732;2022-08-19T04:07:23;99048.94;;;28.34;51.99
5755;BME280;2902;42.130;24.732;2022-08-19T04:09:50;99047.34;;;28.67;50.76
5755;BME280;2902;42.130;24.732;2022-08-19T04:12:18;99059.50;;;28.95;50.04
5755;BME280;2902;42.130;24.732;2022-08-19T04:14:46;99062.97;;;29.21;49.24
5755;BME280;2902;42.130;24.732;2022-08-19T04:17:13;99073.75;;;29.55;47.98
5755;BME280;2902;42.130;24.732;2022-08-19T04:19:40;99069.72;;;29.90;47.20
5755;BME280;2902;42.130;24.732;2022-08-19T04:22:08;99068.66;;;30.24;45.99
5755;BME280;2902;42.130;24.732;2022-08-19T04:24:37;99075.91;;;30.49;44.97
5755;BME280;2902;42.130;24.732;2022-08-19T04:27:04;99070.09;;;30.83;43.63
5755;BME280;2902;42.130;24.732;2022-08-19T04:29:33;99074.41;;;31.16;43.21
5755;BME280;2902;42.130;24.732;2022-08-19T04:32:00;99079.50;;;31.50;42.41
5755;BME280;2902;42.130;24.732;2022-08-19T04:34:28;99086.47;;;31.84;41.56
5755;BME280;2902;42.130;24.732;2022-08-19T04:36:57;99080.72;;;32.13;40.92
5755;BME280;2902;42.130;24.732;2022-08-19T04:39:28;99070.94;;;32.39;40.42
5755;BME280;2902;42.130;24.732;2022-08-19T04:42:09;99085.09;;;32.81;39.20
5755;BME280;2902;42.130;24.732;2022-08-19T04:44:55;99085.25;;;33.00;38.61
5755;BME280;2902;42.130;24.732;2022-08-19T04:47:23;99086.41;;;33.30;37.93
5755;BME280;2902;42.130;24.732;2022-08-19T04:49:50;99089.09;;;33.58;37.16
5755;BME280;2902;42.130;24.732;2022-08-19T04:52:17;99090.06;;;33.81;36.67
5755;BME280;2902;42.130;24.732;2022-08-19T04:54:43;99086.88;;;34.13;36.20
5755;BME280;2902;42.130;24.732;2022-08-19T04:57:10;99094.50;;;34.35;35.68
5755;BME280;2902;42.130;24.732;2022-08-19T04:59:38;99096.03;;;34.52;35.52
5755;BME280;2902;42.130;24.732;2022-08-19T05:02:07;99097.31;;;34.77;35.65
5755;BME280;2902;42.130;24.732;2022-08-19T05:04:34;99101.59;;;35.12;34.60
5755;BME280;2902;42.130;24.732;2022-08-19T05:07:04;99099.91;;;35.08;34.38
5755;BME280;2902;42.130;24.732;2022-08-19T05:09:31;99100.81;;;35.34;33.70
5755;BME280;2902;42.130;24.732;2022-08-19T05:11:58;99092.94;;;35.59;33.49
5755;BME280;2902;42.130;24.732;2022-08-19T05:14:25;99098.19;;;35.64;33.20
5755;BME280;2902;42.130;24.732;2022-08-19T05:16:52;99106.28;;;35.76;32.73
5755;BME280;2902;42.130;24.732;2022-08-19T05:19:20;99106.00;;;35.84;32.84
5755;BME280;2902;42.130;24.732;2022-08-19T05:22:04;99109.63;;;36.14;32.39
5755;BME280;2902;42.130;24.732;2022-08-19T05:24:48;99112.03;;;36.42;31.68
5755;BME280;2902;42.130;24.732;2022-08-19T05:27:15;99100.41;;;36.62;31.19
5755;BME280;2902;42.130;24.732;2022-08-19T05:29:42;99112.56;;;36.84;30.79
5755;BME280;2902;42.130;24.732;2022-08-19T05:32:08;99103.13;;;36.88;31.14
5755;BME280;2902;42.130;24.732;2022-08-19T05:34:37;99111.34;;;36.81;30.83
5755;BME280;2902;42.130;24.732;2022-08-19T05:37:05;99111.78;;;37.20;29.22
5755;BME280;2902;42.130;24.732;2022-08-19T05:39:34;99109.59;;;37.40;29.14
5755;BME280;2902;42.130;24.732;2022-08-19T05:42:04;99111.16;;;37.37;28.80
5755;BME280;2902;42.130;24.732;2022-08-19T05:44:33;99111.63;;;37.46;27.69
5755;BME280;2902;42.130;24.732;2022-08-19T05:47:03;99113.56;;;37.42;28.44
5755;BME280;2902;42.130;24.732;2022-08-19T05:49:33;99105.28;;;37.05;27.97
5755;BME280;2902;42.130;24.732;2022-08-19T05:52:02;99094.72;;;36.81;29.69
5755;BME280;2902;42.130;24.732;2022-08-19T05:54:30;99101.59;;;36.94;28.95
5755;BME280;2902;42.130;24.732;2022-08-19T05:56:56;99103.75;;;36.75;29.08
5755;BME280;2902;42.130;24.732;2022-08-19T05:59:23;99103.72;;;36.42;29.86
5755;BME280;2902;42.130;24.732;2022-08-19T06:01:51;99099.28;;;36.67;29.46
5755;BME280;2902;42.130;24.732;2022-08-19T06:04:20;99109.00;;;36.54;29.73
5755;BME280;2902;42.130;24.732;2022-08-19T06:06:47;99110.00;;;36.68;29.33
5755;BME280;2902;42.130;24.732;2022-08-19T06:09:17;99115.97;;;36.74;28.86
5755;BME280;2902;42.130;24.732;2022-08-19T06:11:45;99116.75;;;36.71;29.46
5755;BME280;2902;42.130;24.732;2022-08-19T06:14:17;99117.03;;;36.95;28.99
5755;BME280;2902;42.130;24.732;2022-08-19T06:16:46;99115.31;;;37.17;28.88
5755;BME280;2902;42.130;24.732;2022-08-19T06:19:16;99121.09;;;37.42;28.05
5755;BME280;2902;42.130;24.732;2022-08-19T06:21:45;99120.09;;;37.20;28.49
5755;BME280;2902;42.130;24.732;2022-08-19T06:24:18;99115.72;;;37.19;28.08
5755;BME280;2902;42.130;24.732;2022-08-19T06:26:47;99119.84;;;36.66;28.44
5755;BME280;2902;42.130;24.732;2022-08-19T06:29:16;99117.22;;;36.47;28.51
5755;BME280;2902;42.130;24.732;2022-08-19T06:31:44;99127.13;;;35.96;29.53
5755;BME280;2902;42.130;24.732;2022-08-19T06:34:11;99130.34;;;36.24;29.63
5755;BME280;2902;42.130;24.732;2022-08-19T06:36:41;99125.19;;;36.52;29.75
5755;BME280;2902;42.130;24.732;2022-08-19T06:39:13;99121.63;;;36.81;28.88
5755;BME280;2902;42.130;24.732;2022-08-19T06:41:43;99129.53;;;36.79;28.36
5755;BME280;2902;42.130;24.732;2022-08-19T06:44:12;99129.31;;;36.65;28.98
5755;BME280;2902;42.130;24.732;2022-08-19T06:46:40;99133.63;;;36.92;28.71
5755;BME280;2902;42.130;24.732;2022-08-19T06:49:08;99131.78;;;36.70;29.05
5755;BME280;2902;42.130;24.732;2022-08-19T06:51:39;99132.94;;;35.65;30.25
5755;BME280;2902;42.130;24.732;2022-08-19T06:54:06;99129.34;;;35.87;30.93
5755;BME280;2902;42.130;24.732;2022-08-19T06:56:33;99130.56;;;36.38;29.81
5755;BME280;2902;42.130;24.732;2022-08-19T06:59:01;99130.47;;;36.34;29.92
5755;BME280;2902;42.130;24.732;2022-08-19T07:01:29;99130.91;;;36.66;29.73
5755;BME280;2902;42.130;24.732;2022-08-19T07:03:56;99126.00;;;36.52;29.96
5755;BME280;2902;42.130;24.732;2022-08-19T07:06:22;99124.78;;;36.50;30.12
5755;BME280;2902;42.130;24.732;2022-08-19T07:08:49;99117.59;;;35.93;30.14
5755;BME280;2902;42.130;24.732;2022-08-19T07:11:18;99114.44;;;35.69;30.98
5755;BME280;2902;42.130;24.732;2022-08-19T07:13:46;99112.25;;;35.33;30.84
5755;BME280;2902;42.130;24.732;2022-08-19T07:16:16;99109.31;;;35.26;31.22
5755;BME280;2902;42.130;24.732;2022-08-19T07:18:46;99110.34;;;35.37;31.32
5755;BME280;2902;42.130;24.732;2022-08-19T07:21:15;99100.63;;;35.69;30.89
5755;BME280;2902;42.130;24.732;2022-08-19T07:23:43;99108.72;;;36.07;29.88
5755;BME280;2902;42.130;24.732;2022-08-19T07:26:22;99103.13;;;35.77;30.83
5755;BME280;2902;42.130;24.732;2022-08-19T07:28:49;99101.78;;;35.68;30.11
5755;BME280;2902;42.130;24.732;2022-08-19T07:31:19;99110.22;;;35.75;30.28
5755;BME280;2902;42.130;24.732;2022-08-19T07:33:49;99109.56;;;36.11;30.40
5755;BME280;2902;42.130;24.732;2022-08-19T07:36:19;99105.88;;;36.26;29.12
5755;BME280;2902;42.130;24.732;2022-08-19T07:38:48;99108.00;;;36.10;29.43
5755;BME280;2902;42.130;24.732;2022-08-19T07:41:20;99102.94;;;36.15;29.75
5755;BME280;2902;42.130;24.732;2022-08-19T07:43:48;99103.50;;;36.28;29.15
5755;BME280;2902;42.130;24.732;2022-08-19T07:46:16;99099.34;;;36.15;29.45
5755;BME280;2902;42.130;24.732;2022-08-19T07:48:44;99104.28;;;36.25;29.37
5755;BME280;2902;42.130;24.732;2022-08-19T07:51:15;99102.44;;;36.10;29.27
5755;BME280;2902;42.130;24.732;2022-08-19T07:53:43;99100.97;;;35.90;29.69
5755;BME280;2902;42.130;24.732;2022-08-19T07:56:11;99093.09;;;36.18;29.64
5755;BME280;2902;42.130;24.732;2022-08-19T07:58:42;99099.94;;;36.57;29.16
5755;BME280;2902;42.130;24.732;2022-08-19T08:01:12;99097.88;;;36.50;28.90
5755;BME280;2902;42.130;24.732;2022-08-19T08:03:39;99092.66;;;36.42;29.23
5755;BME280;2902;42.130;24.732;2022-08-19T08:06:26;99090.69;;;36.16;29.01
5755;BME280;2902;42.130;24.732;2022-08-19T08:09:11;99097.72;;;37.02;28.26
5755;BME280;2902;42.130;24.732;2022-08-19T08:11:43;99099.25;;;37.33;27.65
5755;BME280;2902;42.130;24.732;2022-08-19T08:14:18;99098.78;;;37.24;27.84
5755;BME280;2902;42.130;24.732;2022-08-19T08:16:45;99098.28;;;37.15;27.27
5755;BME280;2902;42.130;24.732;2022-08-19T08:19:13;99094.19;;;37.05;27.61
5755;BME280;2902;42.130;24.732;2022-08-19T08:21:42;99089.28;;;36.26;29.08
5755;BME280;2902;42.130;24.732;2022-08-19T08:24:10;99090.31;;;36.77;28.18
5755;BME280;2902;42.130;24.732;2022-08-19T08:26:37;99084.38;;;36.75;28.08
5755;BME280;2902;42.130;24.732;2022-08-19T08:29:04;99081.84;;;36.66;28.64
5755;BME280;2902;42.130;24.732;2022-08-19T08:31:33;99091.00;;;37.03;27.07
5755;BME280;2902;42.130;24.732;2022-08-19T08:34:00;99091.47;;;37.49;27.23
5755;BME280;2902;42.130;24.732;2022-08-19T08:36:26;99080.84;;;37.58;27.60
5755;BME280;2902;42.130;24.732;2022-08-19T08:38:55;99066.00;;;37.33;28.19
5755;BME280;2902;42.130;24.732;2022-08-19T08:41:28;99074.44;;;37.07;28.44
5755;BME280;2902;42.130;24.732;2022-08-19T08:43:58;99081.19;;;37.53;27.55
5755;BME280;2902;42.130;24.732;2022-08-19T08:46:32;99069.13;;;37.28;28.02
5755;BME280;2902;42.130;24.732;2022-08-19T08:49:05;99075.16;;;37.88;27.06
5755;BME280;2902;42.130;24.732;2022-08-19T08:51:37;99068.56;;;38.13;26.70
5755;BME280;2902;42.130;24.732;2022-08-19T08:54:10;99070.81;;;38.62;26.47
5755;BME280;2902;42.130;24.732;2022-08-19T08:56:38;99065.94;;;38.41;26.62
5755;BME280;2902;42.130;24.732;2022-08-19T08:59:09;99066.75;;;38.45;26.49
5755;BME280;2902;42.130;24.732;2022-08-19T09:01:39;99066.38;;;38.50;27.15
5755;BME280;2902;42.130;24.732;2022-08-19T09:04:06;99066.03;;;38.59;26.60
5755;BME280;2902;42.130;24.732;2022-08-19T09:06:39;99067.31;;;38.86;25.46
5755;BME280;2902;42.130;24.732;2022-08-19T09:09:15;99062.59;;;39.00;25.37
5755;BME280;2902;42.130;24.732;2022-08-19T09:11:56;99056.16;;;38.65;25.26
5755;BME280;2902;42.130;24.732;2022-08-19T09:14:34;99045.47;;;37.95;26.00
5755;BME280;2902;42.130;24.732;2022-08-19T09:17:03;99052.44;;;38.36;25.84
5755;BME280;2902;42.130;24.732;2022-08-19T09:19:34;99041.19;;;38.05;25.22
5755;BME280;2902;42.130;24.732;2022-08-19T09:22:01;99040.13;;;38.30;25.96
5755;BME280;2902;42.130;24.732;2022-08-19T09:24:29;99046.63;;;37.91;25.78
5755;BME280;2902;42.130;24.732;2022-08-19T09:26:55;99039.75;;;38.39;23.82
5755;BME280;2902;42.130;24.732;2022-08-19T09:29:22;99035.00;;;38.43;24.35
5755;BME280;2902;42.130;24.732;2022-08-19T09:31:49;99042.28;;;38.79;24.55
5755;BME280;2902;42.130;24.732;2022-08-19T09:34:16;99036.66;;;38.47;24.13
5755;BME280;2902;42.130;24.732;2022-08-19T09:36:45;99034.63;;;38.41;24.49
5755;BME280;2902;42.130;24.732;2022-08-19T09:39:11;99033.94;;;38.82;24.06
5755;BME280;2902;42.130;24.732;2022-08-19T09:41:39;99035.91;;;38.61;24.50
5755;BME280;2902;42.130;24.732;2022-08-19T09:44:06;99039.47;;;37.90;25.13
5755;BME280;2902;42.130;24.732;2022-08-19T09:46:33;99026.28;;;38.44;24.68
5755;BME280;2902;42.130;24.732;2022-08-19T09:49:01;99028.00;;;38.80;24.18
5755;BME280;2902;42.130;24.732;2022-08-19T09:51:30;99031.25;;;38.96;23.89
5755;BME280;2902;42.130;24.732;2022-08-19T09:53:59;99023.69;;;39.18;23.86
5755;BME280;2902;42.130;24.732;2022-08-19T09:56:27;99022.91;;;39.28;22.71
5755;BME280;2902;42.130;24.732;2022-08-19T09:58:57;99023.31;;;39.26;22.77
5755;BME280;2902;42.130;24.732;2022-08-19T10:01:26;99004.25;;;39.28;23.18
5755;BME280;2902;42.130;24.732;2022-08-19T10:03:55;99009.44;;;39.51;23.58
5755;BME280;2902;42.130;24.732;2022-08-19T10:06:24;99002.69;;;39.41;23.15
5755;BME280;2902;42.130;24.732;2022-08-19T10:08:51;99007.44;;;39.30;23.73
5755;BME280;2902;42.130;24.732;2022-08-19T10:11:19;99006.59;;;38.84;23.99
5755;BME280;2902;42.130;24.732;2022-08-19T10:13:47;98993.84;;;38.69;24.65
5755;BME280;2902;42.130;24.732;2022-08-19T10:16:17;98995.28;;;38.25;25.16
5755;BME280;2902;42.130;24.732;2022-08-19T10:18:45;98991.31;;;38.22;24.55
5755;BME280;2902;42.130;24.732;2022-08-19T10:21:14;98991.88;;;38.59;24.42
5755;BME280;2902;42.130;24.732;2022-08-19T10:23:45;98985.88;;;38.50;24.09
5755;BME280;2902;42.130;24.732;2022-08-19T10:26:18;98980.38;;;38.71;24.19
5755;BME280;2902;42.130;24.732;2022-08-19T10:28:45;98985.09;;;38.64;24.45
5755;BME280;2902;42.130;24.732;2022-08-19T10:31:13;98979.63;;;38.95;23.75
5755;BME280;2902;42.130;24.732;2022-08-19T10:33:43;98973.66;;;39.14;23.88
5755;BME280;2902;42.130;24.732;2022-08-19T10:36:13;98976.44;;;38.90;24.15
5755;BME280;2902;42.130;24.732;2022-08-19T10:38:43;98973.28;;;38.98;23.78
5755;BME280;2902;42.130;24.732;2022-08-19T10:41:12;98966.88;;;38.87;23.51
5755;BME280;2902;42.130;24.732;2022-08-19T10:43:40;98975.63;;;38.89;22.84
5755;BME280;2902;42.130;24.732;2022-08-19T10:46:08;98970.47;;;38.91;23.07
5755;BME280;2902;42.130;24.732;2022-08-19T10:48:35;98977.63;;;38.99;22.64
5755;BME280;2902;42.130;24.732;2022-08-19T10:51:04;98970.91;;;39.04;22.17
5755;BME280;2902;42.130;24.732;2022-08-19T10:53:49;98969.72;;;39.19;21.95
5755;BME280;2902;42.130;24.732;2022-08-19T10:56:16;98962.94;;;39.02;22.10
5755;BME280;2902;42.130;24.732;2022-08-19T10:59:00;98966.91;;;39.22;22.19
5755;BME280;2902;42.130;24.732;2022-08-19T11:01:29;98966.94;;;39.01;22.60
5755;BME280;2902;42.130;24.732;2022-08-19T11:03:59;98960.19;;;39.09;23.13
5755;BME280;2902;42.130;24.732;2022-08-19T11:06:27;98957.41;;;39.06;23.04
5755;BME280;2902;42.130;24.732;2022-08-19T11:08:55;98959.00;;;39.17;22.58
5755;BME280;2902;42.130;24.732;2022-08-19T11:11:22;98951.03;;;39.26;22.72
5755;BME280;2902;42.130;24.732;2022-08-19T11:13:49;98943.09;;;39.21;22.57
5755;BME280;2902;42.130;24.732;2022-08-19T11:16:17;98946.25;;;39.30;22.50
5755;BME280;2902;42.130;24.732;2022-08-19T11:18:48;98947.88;;;39.38;22.40
5755;BME280;2902;42.130;24.732;2022-08-19T11:21:17;98947.47;;;39.36;21.99
5755;BME280;2902;42.130;24.732;2022-08-19T11:23:47;98949.44;;;39.29;21.91
5755;BME280;2902;42.130;24.732;2022-08-19T11:26:15;98941.50;;;39.38;22.35
5755;BME280;2902;42.130;24.732;2022-08-19T11:28:43;98943.06;;;39.53;22.39
5755;BME280;2902;42.130;24.732;2022-08-19T11:31:11;98943.50;;;39.13;22.52
5755;BME280;2902;42.130;24.732;2022-08-19T11:33:38;98933.56;;;39.36;22.86
5755;BME280;2902;42.130;24.732;2022-08-19T11:36:05;98935.88;;;39.59;21.80
5755;BME280;2902;42.130;24.732;2022-08-19T11:38:32;98930.31;;;39.59;21.80
5755;BME280;2902;42.130;24.732;2022-08-19T11:41:03;98937.91;;;39.58;20.75
5755;BME280;2902;42.130;24.732;2022-08-19T11:43:32;98930.72;;;39.68;20.67
5755;BME280;2902;42.130;24.732;2022-08-19T11:45:59;98921.16;;;39.69;21.52
5755;BME280;2902;42.130;24.732;2022-08-19T11:48:29;98925.19;;;39.57;21.81
5755;BME280;2902;42.130;24.732;2022-08-19T11:50:56;98924.00;;;39.58;21.25
5755;BME280;2902;42.130;24.732;2022-08-19T11:53:23;98922.06;;;39.41;21.63
5755;BME280;2902;42.130;24.732;2022-08-19T11:55:52;98915.28;;;39.35;21.38
5755;BME280;2902;42.130;24.732;2022-08-19T11:58:22;98901.81;;;38.95;21.90
5755;BME280;2902;42.130;24.732;2022-08-19T12:00:50;98908.16;;;38.78;21.92
5755;BME280;2902;42.130;24.732;2022-08-19T12:03:17;98906.56;;;38.63;22.43
5755;BME280;2902;42.130;24.732;2022-08-19T12:05:44;98909.72;;;38.86;21.85
5755;BME280;2902;42.130;24.732;2022-08-19T12:08:11;98903.41;;;39.03;21.83
5755;BME280;2902;42.130;24.732;2022-08-19T12:10:39;98905.00;;;38.97;21.69
5755;BME280;2902;42.130;24.732;2022-08-19T12:13:07;98900.63;;;38.79;21.86
5755;BME280;2902;42.130;24.732;2022-08-19T12:15:37;98897.84;;;38.75;22.20
5755;BME280;2902;42.130;24.732;2022-08-19T12:18:06;98882.78;;;38.76;21.78
5755;BME280;2902;42.130;24.732;2022-08-19T12:20:35;98890.63;;;38.43;22.33
5755;BME280;2902;42.130;24.732;2022-08-19T12:23:02;98883.50;;;38.42;22.43
5755;BME280;2902;42.130;24.732;2022-08-19T12:25:29;98885.09;;;38.39;22.21
5755;BME280;2902;42.130;24.732;2022-08-19T12:27:56;98883.09;;;38.40;22.25
5755;BME280;2902;42.130;24.732;2022-08-19T12:30:23;98881.91;;;38.23;22.35
5755;BME280;2902;42.130;24.732;2022-08-19T12:32:51;98874.34;;;38.24;22.41
5755;BME280;2902;42.130;24.732;2022-08-19T12:35:18;98871.56;;;38.20;22.04
5755;BME280;2902;42.130;24.732;2022-08-19T12:37:47;98875.97;;;38.46;22.72
5755;BME280;2902;42.130;24.732;2022-08-19T12:40:14;98872.06;;;38.64;22.72
5755;BME280;2902;42.130;24.732;2022-08-19T12:42:42;98875.63;;;38.86;21.88
5755;BME280;2902;42.130;24.732;2022-08-19T12:45:10;98882.78;;;38.94;21.06
5755;BME280;2902;42.130;24.732;2022-08-19T12:47:37;98875.66;;;38.96;21.60
5755;BME280;2902;42.130;24.732;2022-08-19T12:50:07;98870.84;;;38.86;21.83
5755;BME280;2902;42.130;24.732;2022-08-19T12:52:35;98870.06;;;38.82;21.90
5755;BME280;2902;42.130;24.732;2022-08-19T12:55:04;98868.88;;;38.69;21.69
5755;BME280;2902;42.130;24.732;2022-08-19T12:57:32;98868.47;;;38.71;22.08
5755;BME280;2902;42.130;24.732;2022-08-19T13:00:05;98867.69;;;38.77;22.19
5755;BME280;2902;42.130;24.732;2022-08-19T13:02:36;98835.16;;;38.71;21.76
5755;BME280;2902;42.130;24.732;2022-08-19T13:05:03;98854.97;;;38.73;22.03
5755;BME280;2902;42.130;24.732;2022-08-19T13:07:32;98855.78;;;38.66;21.74
5755;BME280;2902;42.130;24.732;2022-08-19T13:10:00;98852.56;;;38.29;22.11
5755;BME280;2902;42.130;24.732;2022-08-19T13:12:27;98846.88;;;37.87;22.60
5755;BME280;2902;42.130;24.732;2022-08-19T13:14:55;98856.44;;;38.00;22.19
5755;BME280;2902;42.130;24.732;2022-08-19T13:17:22;98852.13;;;38.13;22.25
5755;BME280;2902;42.130;24.732;2022-08-19T13:19:49;98848.19;;;38.18;21.61